Time;durP1;ratioP1;P1;durP2;ratioP2;P2;SDS_P1;SDS_P2;PMS_P1;PMS_P2;Temp;Humidity;BMP_temperature;BMP_pressure;BME280_temperature;BME280_humidity;BME280_pressure;Samples;Min_cycle;Max_cycle;Signal;HPM_P1;HPM_P2
2022/08/24 00:00:56;;;;;;;3.83;2.50;;;;;;;21.12;53.78;99096.13;5059191;28;20495;-79
2022/08/24 00:03:22;;;;;;;2.88;2.40;;;;;;;21.21;54.01;99113.25;5046231;28;20115;-79
2022/08/24 00:05:48;;;;;;;3.53;2.72;;;;;;;21.16;54.00;99116.09;5062622;28;20029;-79
2022/08/24 00:08:14;;;;;;;4.43;3.17;;;;;;;20.84;56.52;99106.28;5063252;28;20040;-79
2022/08/24 00:10:40;;;;;;;3.08;2.83;;;;;;;20.86;55.43;99117.63;5060068;28;20495;-78
2022/08/24 00:13:05;;;;;;;5.32;2.70;;;;;;;20.86;54.67;99099.44;5066231;28;20044;-78
2022/08/24 00:15:32;;;;;;;10.07;3.28;;;;;;;20.73;54.88;99081.31;5061584;28;20025;-78
2022/08/24 00:17:58;;;;;;;4.25;2.45;;;;;;;20.95;54.47;99090.56;5058229;28;20020;-78
2022/08/24 00:20:23;;;;;;;3.40;3.10;;;;;;;20.93;53.97;99088.94;5055776;28;20113;-78
2022/08/24 00:22:49;;;;;;;7.75;2.72;;;;;;;20.93;54.34;99105.22;5068233;28;20024;-78
2022/08/24 00:25:16;;;;;;;2.95;2.70;;;;;;;20.99;54.21;99097.75;5057833;28;20476;-78
2022/08/24 00:27:41;;;;;;;3.15;2.72;;;;;;;21.06;54.51;99102.75;5055409;28;20079;-79
2022/08/24 00:30:14;;;;;;;3.33;3.03;;;;;;;21.02;54.36;99099.84;5062213;28;20395;-78
2022/08/24 00:32:41;;;;;;;3.03;2.75;;;;;;;21.05;54.14;99104.69;5052262;28;20484;-79
2022/08/24 00:35:08;;;;;;;6.60;3.28;;;;;;;20.86;56.02;99091.28;5062294;28;20191;-79
2022/08/24 00:37:34;;;;;;;12.73;3.78;;;;;;;20.75;54.80;99087.22;5062031;28;20055;-79
2022/08/24 00:40:00;;;;;;;4.28;3.00;;;;;;;20.91;54.79;99099.31;5062386;28;20029;-78
2022/08/24 00:42:25;;;;;;;7.15;2.60;;;;;;;20.84;55.10;99101.66;5056594;28;20031;-79
2022/08/24 00:44:50;;;;;;;3.00;2.70;;;;;;;20.97;54.73;99099.97;5054669;28;20374;-79
2022/08/24 00:47:26;;;;;;;4.97;2.58;;;;;;;20.77;56.13;99106.69;5060796;28;20025;-79
2022/08/24 00:49:55;;;;;;;;;;;;;;;20.89;54.69;99106.97;5061001;28;20036;-79
2022/08/24 00:52:26;;;;;;;4.28;2.72;;;;;;;20.81;54.92;99109.63;5059435;28;19923;-79
2022/08/24 00:54:57;;;;;;;6.88;2.80;;;;;;;20.66;55.24;99108.06;5056832;28;20509;-78
2022/08/24 00:57:29;;;;;;;3.17;2.88;;;;;;;20.80;55.34;99111.53;5061922;28;20484;-78
2022/08/24 01:00:00;;;;;;;6.13;3.15;;;;;;;20.83;54.61;99108.19;5059030;28;20889;-79
2022/08/24 01:02:32;;;;;;;4.82;2.67;;;;;;;20.86;55.16;99104.84;5042206;28;20395;-78
2022/08/24 01:05:02;;;;;;;11.80;3.08;;;;;;;20.79;55.34;99111.84;5051373;28;20028;-78
2022/08/24 01:07:30;;;;;;;3.70;2.83;;;;;;;20.70;55.01;99114.50;5061104;28;20028;-79
2022/08/24 01:10:00;;;;;;;4.60;3.45;;;;;;;20.83;54.92;99113.63;5054119;28;20041;-77
2022/08/24 01:12:28;;;;;;;5.88;3.08;;;;;;;20.40;56.79;99122.53;5060714;28;20040;-78
2022/08/24 01:14:56;;;;;;;2.95;2.75;;;;;;;20.53;55.78;99117.03;5053643;28;20040;-78
2022/08/24 01:20:08;;;;;;;4.05;3.33;;;;;;;20.58;55.76;99102.56;5066355;28;20449;-78
2022/08/24 01:23:06;;;;;;;3.67;2.55;;;;;;;20.64;55.46;99095.94;5059972;28;20025;-78
2022/08/24 01:25:35;;;;;;;3.00;2.70;;;;;;;20.72;55.05;99095.19;5061338;28;20036;-78
2022/08/24 01:28:07;;;;;;;4.65;3.10;;;;;;;20.80;54.97;99105.28;5065717;28;20025;-78
2022/08/24 01:30:33;;;;;;;4.82;2.85;;;;;;;20.74;55.32;99115.47;5063024;28;20064;-78
2022/08/24 01:33:02;;;;;;;5.53;3.20;;;;;;;20.50;55.86;99089.75;5058273;28;20036;-78
2022/08/24 01:35:30;;;;;;;3.97;3.15;;;;;;;20.54;55.88;99101.59;5065699;28;20039;-78
2022/08/24 01:37:58;;;;;;;4.70;2.80;;;;;;;20.67;55.68;99109.66;5061010;28;20437;-78
2022/08/24 01:40:32;;;;;;;4.18;3.20;;;;;;;20.64;55.55;99113.00;5047890;28;20035;-78
2022/08/24 01:42:57;;;;;;;3.63;3.05;;;;;;;20.64;55.82;99112.22;5064700;28;20045;-78
2022/08/24 01:45:23;;;;;;;5.68;3.22;;;;;;;20.59;55.85;99101.47;5061352;28;20396;-78
2022/08/24 01:47:48;;;;;;;5.10;2.70;;;;;;;20.65;55.81;99111.91;5045449;28;20179;-78
2022/08/24 01:50:14;;;;;;;4.13;2.97;;;;;;;20.56;55.72;99110.22;5045312;28;20036;-78
2022/08/24 01:52:42;;;;;;;7.90;2.90;;;;;;;20.52;55.91;99101.09;5048935;28;20029;-78
2022/08/24 01:55:10;;;;;;;4.03;3.40;;;;;;;20.61;55.97;99121.75;5060958;28;20029;-78
2022/08/24 01:57:35;;;;;;;5.70;3.20;;;;;;;20.51;55.98;99111.13;5047185;28;20032;-78
2022/08/24 02:00:03;;;;;;;3.45;3.15;;;;;;;20.58;56.03;99125.06;5063447;28;20688;-79
2022/08/24 02:02:30;;;;;;;4.13;3.05;;;;;;;20.47;56.03;99104.72;5059913;28;20040;-78
2022/08/24 02:04:56;;;;;;;4.45;2.95;;;;;;;20.36;55.92;99108.75;5058412;28;20441;-78
2022/08/24 02:07:22;;;;;;;3.70;3.28;;;;;;;20.54;56.51;99121.38;5048501;28;20115;-78
2022/08/24 02:09:47;;;;;;;5.20;2.78;;;;;;;20.43;56.02;99114.56;5036517;28;20727;-78
2022/08/24 02:12:13;;;;;;;3.83;3.00;;;;;;;20.28;56.99;99133.09;5064449;28;20472;-78
2022/08/24 02:14:39;;;;;;;8.10;3.35;;;;;;;20.31;56.74;99127.88;5064121;28;20040;-78
2022/08/24 02:17:07;;;;;;;4.47;3.03;;;;;;;20.47;56.44;99128.31;5056392;28;20115;-78
2022/08/24 02:19:34;;;;;;;6.90;3.28;;;;;;;20.44;56.64;99132.47;5059420;28;20058;-78
2022/08/24 02:21:59;;;;;;;4.18;3.03;;;;;;;20.46;56.30;99132.97;5062586;28;20126;-78
2022/08/24 02:24:26;;;;;;;5.63;3.63;;;;;;;20.23;56.05;99114.22;5063372;28;20048;-78
2022/08/24 02:26:52;;;;;;;3.55;3.25;;;;;;;20.17;57.03;99148.75;5057340;28;20029;-78
2022/08/24 02:29:17;;;;;;;3.55;3.25;;;;;;;20.04;57.42;99141.44;5064610;28;20078;-78
2022/08/24 02:31:43;;;;;;;3.47;3.20;;;;;;;20.07;57.17;99133.50;5055180;28;20559;-78
2022/08/24 02:34:08;;;;;;;8.15;3.85;;;;;;;20.01;57.37;99125.78;5053902;28;20028;-78
2022/08/24 02:36:34;;;;;;;7.78;3.47;;;;;;;19.95;57.61;99118.84;5032117;28;20037;-78
2022/08/24 02:39:00;;;;;;;4.75;3.70;;;;;;;19.90;57.37;99127.09;5060982;28;20043;-78
2022/08/24 02:41:26;;;;;;;6.10;4.07;;;;;;;19.32;61.63;99138.47;5064068;28;20032;-78
2022/08/24 02:43:55;;;;;;;5.18;3.83;;;;;;;19.77;58.93;99119.75;5064875;28;20518;-78
2022/08/24 02:46:25;;;;;;;4.70;3.47;;;;;;;20.04;56.98;99125.16;5060998;28;20463;-78
2022/08/24 02:48:52;;;;;;;6.25;3.22;;;;;;;19.82;57.54;99114.25;5042461;28;20029;-78
2022/08/24 02:51:30;;;;;;;4.75;3.88;;;;;;;20.09;57.07;99120.44;5060454;28;20051;-78
2022/08/24 02:54:00;;;;;;;3.83;3.53;;;;;;;20.14;56.77;99127.66;5061272;28;20035;-78
2022/08/24 02:56:30;;;;;;;3.50;3.20;;;;;;;20.18;57.29;99139.53;5043254;28;20052;-78
2022/08/24 02:58:57;;;;;;;5.10;3.63;;;;;;;20.08;56.90;99109.91;5076815;28;21376;-78
2022/08/24 03:01:23;;;;;;;4.63;3.72;;;;;;;20.11;57.17;99131.81;5060095;28;20029;-78
2022/08/24 03:03:49;;;;;;;5.53;3.58;;;;;;;20.13;57.24;99139.63;5058741;28;20059;-78
2022/08/24 03:06:14;;;;;;;3.45;3.15;;;;;;;19.85;57.90;99146.16;5057142;28;20078;-78
2022/08/24 03:08:40;;;;;;;4.00;3.53;;;;;;;19.96;57.47;99118.53;5061690;28;20469;-78
2022/08/24 03:11:07;;;;;;;3.95;3.65;;;;;;;20.01;57.59;99129.28;5063374;28;20028;-78
2022/08/24 03:13:33;;;;;;;7.18;3.47;;;;;;;20.06;57.52;99145.44;5045282;28;20125;-78
2022/08/24 03:15:59;;;;;;;7.38;3.60;;;;;;;19.98;57.31;99139.94;5058447;28;20103;-78
2022/08/24 03:18:25;;;;;;;3.83;3.17;;;;;;;19.92;57.43;99154.69;5062014;28;20128;-78
2022/08/24 03:20:55;;;;;;;6.85;4.78;;;;;;;19.14;61.08;99131.19;5061952;28;20385;-78
2022/08/24 03:23:22;;;;;;;3.85;3.55;;;;;;;19.62;58.78;99141.72;5063490;28;20020;-78
2022/08/24 03:25:48;;;;;;;5.78;4.30;;;;;;;19.25;60.69;99140.75;5063492;28;20024;-78
2022/08/24 03:28:13;;;;;;;4.75;3.80;;;;;;;19.23;59.66;99139.44;5062542;28;20028;-78
2022/08/24 03:30:39;;;;;;;5.07;3.88;;;;;;;19.40;58.72;99116.16;5059751;28;20398;-78
2022/08/24 03:33:05;;;;;;;5.88;3.83;;;;;;;19.80;58.16;99138.13;5063575;28;20032;-78
2022/08/24 03:35:31;;;;;;;4.85;3.28;;;;;;;19.66;57.79;99126.50;5060363;28;20037;-78
2022/08/24 03:37:57;;;;;;;6.68;3.38;;;;;;;19.70;57.80;99112.03;5062092;28;20074;-78
2022/08/24 03:40:22;;;;;;;4.70;3.40;;;;;;;19.81;57.79;99128.91;5063399;28;20438;-78
2022/08/24 03:42:49;;;;;;;4.53;3.65;;;;;;;19.83;57.48;99132.13;5065221;28;20050;-78
2022/08/24 03:45:14;;;;;;;4.00;3.60;;;;;;;19.68;58.04;99125.09;5060648;28;20407;-78
2022/08/24 03:47:40;;;;;;;5.47;3.78;;;;;;;19.77;57.64;99119.75;5047750;28;20120;-78
2022/08/24 03:50:07;;;;;;;5.90;3.72;;;;;;;19.83;57.70;99127.47;5061882;28;20036;-78
2022/08/24 03:52:34;;;;;;;5.47;4.20;;;;;;;19.74;57.76;99140.16;5063523;28;20081;-78
2022/08/24 03:55:00;;;;;;;4.22;3.83;;;;;;;19.74;57.65;99142.88;5058858;28;20039;-78
2022/08/24 03:57:26;;;;;;;4.22;3.83;;;;;;;19.70;58.08;99130.22;5062423;28;20032;-78
2022/08/24 03:59:51;;;;;;;5.75;3.90;;;;;;;19.64;58.25;99126.78;5061559;28;20036;-78
2022/08/24 04:02:17;;;;;;;4.10;3.42;;;;;;;19.65;57.99;99136.53;5056587;28;20111;-78
2022/08/24 04:04:42;;;;;;;5.00;3.70;;;;;;;19.60;58.24;99136.63;5059569;28;20028;-78
2022/08/24 04:07:07;;;;;;;4.57;3.75;;;;;;;19.56;58.06;99140.22;5063096;28;20542;-78
2022/08/24 04:09:33;;;;;;;3.95;3.60;;;;;;;19.58;58.22;99124.47;5061540;28;20024;-78
2022/08/24 04:11:59;;;;;;;5.30;3.80;;;;;;;19.60;57.86;99139.34;5062121;28;20415;-78
2022/08/24 04:14:24;;;;;;;6.13;3.65;;;;;;;19.58;57.81;99152.38;5062184;28;20048;-78
2022/08/24 04:16:50;;;;;;;4.57;4.10;;;;;;;19.52;57.86;99150.88;5067518;28;20102;-78
2022/08/24 04:19:15;;;;;;;3.78;3.45;;;;;;;19.46;58.46;99140.44;5049034;28;20040;-78
2022/08/24 04:21:41;;;;;;;3.95;3.65;;;;;;;19.53;58.34;99157.09;5065217;28;20681;-78
2022/08/24 04:24:08;;;;;;;4.50;3.55;;;;;;;19.60;58.39;99154.78;5045457;28;20029;-78
2022/08/24 04:26:35;;;;;;;6.43;3.50;;;;;;;19.53;58.10;99155.16;5059647;28;20551;-78
2022/08/24 04:29:01;;;;;;;4.65;4.13;;;;;;;19.50;58.41;99158.50;5081857;28;20025;-78
2022/08/24 04:31:29;;;;;;;6.13;4.32;;;;;;;19.47;58.33;99161.78;5058750;28;20031;-78
2022/08/24 04:33:54;;;;;;;4.85;3.58;;;;;;;19.43;58.62;99156.16;5061936;28;20028;-78
2022/08/24 04:36:20;;;;;;;5.60;3.67;;;;;;;19.41;58.35;99146.75;5057890;28;20046;-78
2022/08/24 04:38:48;;;;;;;3.88;3.58;;;;;;;19.33;58.79;99155.53;5060687;28;20029;-78
2022/08/24 04:41:17;;;;;;;4.35;3.63;;;;;;;19.35;58.41;99164.19;5043028;28;20135;-78
2022/08/24 04:43:44;;;;;;;6.72;4.00;;;;;;;19.35;58.40;99154.13;5064156;28;20020;-78
2022/08/24 04:46:13;;;;;;;6.72;3.90;;;;;;;19.31;58.41;99152.28;5054884;28;20031;-78
2022/08/24 04:48:40;;;;;;;5.68;3.70;;;;;;;19.37;58.90;99145.72;5063015;28;20428;-78
2022/08/24 04:51:07;;;;;;;4.75;4.30;;;;;;;19.50;58.36;99168.50;5060354;28;20024;-78
2022/08/24 04:53:33;;;;;;;4.88;3.70;;;;;;;19.51;58.56;99176.31;5060561;28;20029;-78
2022/08/24 04:55:59;;;;;;;5.93;3.92;;;;;;;19.46;58.72;99181.03;5061529;28;20067;-78
2022/08/24 04:58:27;;;;;;;3.58;3.28;;;;;;;19.46;58.66;99179.16;5064400;28;20073;-78
2022/08/24 05:00:53;;;;;;;4.07;3.67;;;;;;;18.66;61.73;99186.63;5064634;28;20047;-78
2022/08/24 05:03:19;;;;;;;6.40;3.53;;;;;;;19.38;58.69;99179.81;5045191;28;20025;-78
2022/08/24 05:05:48;;;;;;;5.28;4.00;;;;;;;19.51;58.41;99180.94;5041242;28;20041;-78
2022/08/24 05:08:14;;;;;;;5.82;3.42;;;;;;;19.54;58.12;99174.94;5053834;28;20666;-78
2022/08/24 05:10:43;;;;;;;4.35;3.83;;;;;;;19.60;58.44;99165.59;5060461;28;20443;-78
2022/08/24 05:13:09;;;;;;;6.50;3.50;;;;;;;19.50;58.71;99165.81;5064645;28;20091;-78
2022/08/24 05:15:39;;;;;;;5.32;3.97;;;;;;;19.51;58.21;99149.25;5058106;28;20086;-78
2022/08/24 05:18:06;;;;;;;6.93;4.20;;;;;;;19.75;58.30;99171.53;5056120;28;21376;-78
2022/08/24 05:20:34;;;;;;;6.10;4.53;;;;;;;19.61;58.12;99175.34;5056596;28;20307;-78
2022/08/24 05:23:01;;;;;;;6.85;5.15;;;;;;;18.43;64.39;99165.84;5062757;28;20040;-77
2022/08/24 05:25:27;;;;;;;5.55;5.03;;;;;;;17.76;68.37;99177.75;5065133;28;20947;-77
2022/08/24 05:27:53;;;;;;;6.35;5.00;;;;;;;17.53;69.69;99194.72;5074973;28;20024;-77
2022/08/24 05:30:19;;;;;;;7.38;5.40;;;;;;;17.41;69.57;99186.19;5060099;28;20032;-80
2022/08/24 05:32:45;;;;;;;10.25;6.50;;;;;;;17.30;69.65;99177.34;5043930;28;20052;-78
2022/08/24 05:35:11;;;;;;;7.43;5.43;;;;;;;17.39;69.59;99199.94;5036713;28;20741;-78
2022/08/24 05:37:38;;;;;;;8.10;5.43;;;;;;;17.53;68.95;99192.03;5059510;28;20103;-77
2022/08/24 05:40:07;;;;;;;4.47;4.13;;;;;;;18.39;63.34;99187.22;5051113;28;20025;-77
2022/08/24 05:42:32;;;;;;;4.63;4.22;;;;;;;18.94;61.71;99180.25;5039511;28;20035;-78
2022/08/24 05:44:58;;;;;;;5.03;4.22;;;;;;;19.23;61.07;99180.03;5061644;28;20028;-77
2022/08/24 05:47:24;;;;;;;6.53;4.50;;;;;;;19.51;59.97;99178.22;5055140;28;20472;-77
2022/08/24 05:49:51;;;;;;;5.60;5.05;;;;;;;19.28;63.70;99194.31;5038990;28;20033;-78
2022/08/24 05:52:18;;;;;;;8.02;4.00;;;;;;;19.45;60.23;99201.88;5061904;28;20503;-77
2022/08/24 05:54:43;;;;;;;4.30;4.00;;;;;;;19.67;59.23;99188.50;5063523;28;20029;-78
2022/08/24 05:57:09;;;;;;;5.15;4.00;;;;;;;19.60;59.57;99179.94;5062101;28;20029;-77
2022/08/24 05:59:34;;;;;;;4.85;4.35;;;;;;;19.71;61.22;99208.47;5062113;28;20041;-77
2022/08/24 06:02:00;;;;;;;4.25;3.65;;;;;;;19.47;60.91;99198.88;5055850;28;20472;-78
2022/08/24 06:04:25;;;;;;;8.27;4.88;;;;;;;19.81;60.07;99199.34;5057542;28;21788;-77
2022/08/24 06:06:51;;;;;;;10.02;4.00;;;;;;;20.06;59.39;99202.38;5063322;28;20082;-78
2022/08/24 06:09:16;;;;;;;4.70;3.92;;;;;;;20.21;58.63;99212.13;5061950;28;20464;-77
2022/08/24 06:11:43;;;;;;;5.47;4.72;;;;;;;20.11;59.08;99187.91;5068222;28;20032;-78
2022/08/24 06:14:14;;;;;;;4.60;3.85;;;;;;;19.97;59.64;99204.16;5037645;28;20124;-77
2022/08/24 06:16:44;;;;;;;6.45;4.35;;;;;;;19.57;61.86;99207.63;5055298;28;20469;-77
2022/08/24 06:19:12;;;;;;;6.63;4.95;;;;;;;19.35;61.48;99183.91;5066759;28;20083;-77
2022/08/24 06:21:38;;;;;;;6.40;5.20;;;;;;;19.34;65.91;99201.25;5048250;28;20043;-78
2022/08/24 06:24:04;;;;;;;9.60;5.20;;;;;;;19.20;65.83;99200.38;5061814;28;20020;-77
2022/08/24 06:29:14;;;;;;;9.85;5.72;;;;;;;18.16;70.52;99179.16;5065384;28;20165;-77
2022/08/24 06:31:43;;;;;;;6.05;4.63;;;;;;;18.67;65.72;99201.75;5050359;28;20488;-77
2022/08/24 06:34:09;;;;;;;10.18;6.05;;;;;;;18.78;68.35;99200.53;5066462;28;20036;-77
2022/08/24 06:36:35;;;;;;;5.32;4.63;;;;;;;18.69;66.25;99183.34;5063733;28;20542;-77
2022/08/24 06:39:00;;;;;;;6.72;4.25;;;;;;;19.49;62.04;99189.34;5060644;28;20082;-77
2022/08/24 06:41:26;;;;;;;19.05;6.13;;;;;;;19.87;63.57;99196.25;5061908;28;20546;-77
2022/08/24 06:43:51;;;;;;;4.45;4.05;;;;;;;19.50;63.63;99209.94;5040413;28;20392;-77
2022/08/24 06:46:17;;;;;;;4.50;3.75;;;;;;;19.79;61.02;99212.41;5067044;28;20123;-77
2022/08/24 06:48:43;;;;;;;5.75;5.18;;;;;;;19.49;63.61;99211.03;5067319;28;21783;-78
2022/08/24 06:51:11;;;;;;;5.35;3.83;;;;;;;20.38;59.68;99212.28;5047252;28;20036;-78
2022/08/24 06:53:37;;;;;;;5.13;4.07;;;;;;;19.84;62.29;99209.56;5062343;28;20433;-78
2022/08/24 06:56:03;;;;;;;8.35;5.75;;;;;;;19.73;65.17;99213.56;5058035;28;20186;-78
2022/08/24 06:58:29;;;;;;;6.97;5.15;;;;;;;20.16;62.93;99201.34;5065745;28;20048;-78
2022/08/24 07:00:55;;;;;;;4.47;4.07;;;;;;;19.89;62.38;99217.59;5060894;28;20047;-78
2022/08/24 07:03:22;;;;;;;7.78;6.28;;;;;;;19.29;66.86;99195.91;5041929;28;20104;-77
2022/08/24 07:05:50;;;;;;;6.55;4.60;;;;;;;19.81;64.96;99218.31;5063680;28;20113;-78
2022/08/24 07:08:16;;;;;;;7.10;5.70;;;;;;;19.35;67.35;99227.22;5062154;28;20519;-77
2022/08/24 07:10:41;;;;;;;5.65;4.03;;;;;;;19.83;62.79;99224.22;5064314;28;20033;-77
2022/08/24 07:13:07;;;;;;;6.05;5.45;;;;;;;19.45;67.37;99220.84;5047475;28;20480;-77
2022/08/24 07:15:34;;;;;;;5.28;3.90;;;;;;;20.52;60.79;99223.94;5060777;28;20024;-78
2022/08/24 07:18:00;;;;;;;8.70;4.90;;;;;;;20.40;61.01;99226.34;5064837;28;20028;-78
2022/08/24 07:20:29;;;;;;;4.88;4.47;;;;;;;19.96;65.11;99207.19;5046031;28;20038;-78
2022/08/24 07:22:54;;;;;;;4.70;4.22;;;;;;;20.49;61.70;99221.00;5060676;28;20055;-78
2022/08/24 07:25:20;;;;;;;15.35;6.57;;;;;;;20.02;65.82;99230.38;5057580;28;20038;-78
2022/08/24 07:27:46;;;;;;;16.55;6.45;;;;;;;19.92;66.74;99214.31;5040712;28;20396;-78
2022/08/24 07:30:12;;;;;;;8.68;4.28;;;;;;;20.81;61.11;99227.09;5057526;28;20027;-78
2022/08/24 07:32:37;;;;;;;8.40;3.92;;;;;;;21.05;59.78;99209.75;5064530;28;20032;-78
2022/08/24 07:35:04;;;;;;;13.27;7.05;;;;;;;20.50;64.59;99214.50;5063614;28;20029;-78
2022/08/24 07:37:29;;;;;;;14.00;7.75;;;;;;;20.21;65.89;99225.66;5065990;28;20521;-78
2022/08/24 07:39:55;;;;;;;11.02;6.80;;;;;;;19.95;65.88;99202.84;5050164;28;20036;-78
2022/08/24 07:42:22;;;;;;;13.48;6.55;;;;;;;20.17;65.98;99241.72;5065983;28;20021;-77
2022/08/24 07:44:47;;;;;;;9.98;7.07;;;;;;;20.06;66.95;99237.59;5066867;28;20442;-77
2022/08/24 07:47:12;;;;;;;10.98;6.95;;;;;;;20.05;67.25;99224.34;5068363;28;20028;-77
2022/08/24 07:49:40;;;;;;;7.80;4.20;;;;;;;21.13;61.28;99236.16;5070925;28;20117;-78
2022/08/24 07:52:05;;;;;;;9.82;4.05;;;;;;;21.53;60.00;99218.88;5061630;28;20060;-77
2022/08/24 07:54:31;;;;;;;10.40;6.68;;;;;;;20.95;63.99;99232.47;5051108;28;20052;-78
2022/08/24 07:56:58;;;;;;;7.57;6.32;;;;;;;20.94;63.40;99236.31;5057416;28;20093;-77
2022/08/24 07:59:24;;;;;;;6.03;4.57;;;;;;;21.39;61.44;99224.38;5057557;28;20031;-77
2022/08/24 08:01:50;;;;;;;13.10;6.05;;;;;;;20.99;63.61;99232.69;5060500;28;20043;-77
2022/08/24 08:04:20;;;;;;;11.27;6.95;;;;;;;20.95;64.22;99248.75;5065475;28;20035;-78
2022/08/24 08:06:46;;;;;;;9.85;6.30;;;;;;;20.71;63.91;99218.38;5063604;28;20039;-77
2022/08/24 08:09:11;;;;;;;12.02;7.30;;;;;;;21.16;64.54;99246.41;5061625;28;20025;-78
2022/08/24 08:11:37;;;;;;;5.25;4.10;;;;;;;21.13;63.16;99233.44;5064145;28;20040;-77
2022/08/24 08:14:02;;;;;;;7.45;3.72;;;;;;;21.85;59.87;99228.66;5058005;28;20492;-77
2022/08/24 08:16:28;;;;;;;8.05;4.20;;;;;;;22.12;59.37;99245.59;5055471;28;20036;-77
2022/08/24 08:18:54;;;;;;;9.15;4.82;;;;;;;21.88;61.59;99237.00;5050472;28;20474;-78
2022/08/24 08:24:16;;;;;;;6.20;4.03;;;;;;;22.22;60.22;99250.72;5060360;28;20028;-78
2022/08/24 08:26:43;;;;;;;14.35;4.75;;;;;;;22.14;59.94;99251.50;5062123;28;20024;-78
2022/08/24 08:29:11;;;;;;;9.68;4.85;;;;;;;22.34;60.25;99233.81;5061237;28;20431;-78
2022/08/24 08:31:37;;;;;;;10.82;4.97;;;;;;;21.99;61.68;99238.34;5039892;28;20075;-78
2022/08/24 08:34:07;;;;;;;12.23;5.32;;;;;;;22.00;61.10;99239.09;5056901;28;20056;-79
2022/08/24 08:36:33;;;;;;;14.95;6.22;;;;;;;22.21;60.87;99246.38;5059255;28;20441;-78
2022/08/24 08:39:00;;;;;;;7.75;4.43;;;;;;;22.60;58.95;99237.44;5054744;28;20032;-78
2022/08/24 08:41:37;;;;;;;7.30;4.13;;;;;;;22.37;59.66;99242.13;5060856;28;20349;-78
2022/08/24 08:44:10;;;;;;;12.35;5.65;;;;;;;22.65;59.58;99234.53;5054945;28;20029;-78
2022/08/24 08:46:45;;;;;;;7.45;3.67;;;;;;;22.80;58.81;99244.19;5057069;28;20082;-78
2022/08/24 08:49:47;;;;;;;9.40;5.20;;;;;;;22.58;58.45;99223.31;5069652;28;20028;-78
2022/08/24 08:52:28;;;;;;;7.30;3.85;;;;;;;22.97;58.11;99245.00;5068000;28;20476;-78
2022/08/24 08:55:27;;;;;;;6.05;3.92;;;;;;;23.22;57.52;99237.94;5062665;28;21508;-78
2022/08/24 08:58:10;;;;;;;7.38;4.78;;;;;;;23.07;57.92;99236.50;5042321;28;20508;-79
2022/08/24 09:00:57;;;;;;;11.15;5.18;;;;;;;22.95;57.91;99232.81;5054893;28;20445;-78
2022/08/24 09:03:28;;;;;;;4.55;3.58;;;;;;;23.17;57.65;99232.66;5063842;28;20430;-78
2022/08/24 09:06:12;;;;;;;6.85;4.28;;;;;;;23.11;58.52;99231.19;5059180;28;20536;-78
2022/08/24 09:08:57;;;;;;;5.90;3.67;;;;;;;23.25;57.12;99215.50;5068708;28;20489;-78
2022/08/24 09:11:26;;;;;;;6.38;4.28;;;;;;;23.19;56.98;99226.88;5058362;28;20064;-79
2022/08/24 09:13:51;;;;;;;6.57;4.50;;;;;;;;;;5059645;28;20067;-78
2022/08/24 09:16:55;;;;;;;7.00;3.88;;;;;;;23.49;54.73;99234.09;5056793;28;20032;-78
2022/08/24 09:19:43;;;;;;;5.43;3.33;;;;;;;23.73;55.40;99237.06;5059743;28;20029;-78
2022/08/24 09:22:17;;;;;;;5.53;3.38;;;;;;;23.73;54.61;99215.25;5064212;28;20104;-78
2022/08/24 09:24:52;;;;;;;9.05;3.90;;;;;;;23.94;55.08;99231.72;5068105;28;20068;-78
2022/08/24 09:27:20;;;;;;;4.57;3.30;;;;;;;23.91;54.42;99232.38;5064349;28;20109;-78
2022/08/24 09:30:15;;;;;;;4.88;3.20;;;;;;;24.07;54.07;99212.44;5065502;28;20332;-78
2022/08/24 09:33:05;;;;;;;8.23;3.47;;;;;;;24.05;53.21;99224.81;5060485;28;20063;-78
2022/08/24 09:35:57;;;;;;;5.75;3.30;;;;;;;23.74;52.69;99201.31;5059792;28;20029;-78
2022/08/24 09:38:29;;;;;;;10.02;3.40;;;;;;;24.04;52.86;99220.44;5073332;28;20028;-78
2022/08/24 09:40:54;;;;;;;7.28;2.78;;;;;;;24.10;50.89;99219.16;5059383;28;20491;-78
2022/08/24 09:43:23;;;;;;;4.15;3.25;;;;;;;24.28;51.49;99215.22;5060712;28;20020;-78
2022/08/24 09:46:19;;;;;;;5.28;2.95;;;;;;;24.37;51.16;99218.72;5057773;28;20056;-78
2022/08/24 09:49:13;;;;;;;3.60;2.55;;;;;;;24.33;50.33;99217.78;5067249;28;20037;-77
2022/08/24 09:52:08;;;;;;;6.45;2.60;;;;;;;24.43;50.37;99211.94;5019065;28;20032;-78
2022/08/24 09:54:51;;;;;;;4.75;3.05;;;;;;;24.46;49.88;99214.78;5066145;28;20028;-78
2022/08/24 09:57:46;;;;;;;4.15;2.55;;;;;;;24.55;50.75;99212.81;5064922;28;20027;-78
2022/08/24 10:00:17;;;;;;;4.47;2.50;;;;;;;24.91;49.84;99208.72;5062785;28;20365;-78
2022/08/24 10:03:27;;;;;;;5.15;3.10;;;;;;;25.12;48.64;99213.03;5062229;28;20451;-78
2022/08/24 10:06:06;;;;;;;11.07;4.35;;;;;;;25.37;48.55;99211.22;5048281;28;20040;-78
2022/08/24 10:08:50;;;;;;;9.82;2.80;;;;;;;25.52;47.50;99209.78;5080636;28;20111;-79
2022/08/24 10:11:22;;;;;;;3.58;3.05;;;;;;;25.66;47.06;99204.84;5066109;28;20472;-78
2022/08/24 10:14:17;;;;;;;2.47;2.25;;;;;;;25.64;47.34;99202.41;5066863;28;20037;-78
2022/08/24 10:17:29;;;;;;;4.70;2.63;;;;;;;25.74;46.27;99203.94;5058510;28;20036;-78
2022/08/24 10:20:24;;;;;;;6.97;2.78;;;;;;;25.64;46.24;99207.09;5066438;28;20036;-78
2022/08/24 10:23:16;;;;;;;2.70;2.40;;;;;;;25.19;45.64;99198.84;5067697;28;20464;-78
2022/08/24 10:25:53;;;;;;;7.03;2.92;;;;;;;25.92;45.53;99197.94;5052882;28;20040;-78
2022/08/24 10:28:46;;;;;;;2.97;2.33;;;;;;;26.30;44.80;99194.84;5061432;28;20395;-78
2022/08/24 10:31:37;;;;;;;3.53;2.70;;;;;;;25.81;44.26;99174.09;5066075;28;20489;-78
2022/08/24 10:34:09;;;;;;;2.50;2.30;;;;;;;25.40;45.17;99191.41;5063927;28;20111;-78
2022/08/24 10:36:37;;;;;;;4.95;2.92;;;;;;;25.89;45.24;99184.13;5064086;28;20056;-78
2022/08/24 10:39:42;;;;;;;8.65;2.65;;;;;;;26.56;45.04;99165.16;5069437;28;20024;-79
2022/08/24 10:45:57;;;;;;;4.15;2.40;;;;;;;26.40;44.71;99171.72;5061862;28;20036;-80
2022/08/24 10:48:29;;;;;;;3.20;2.90;;;;;;;26.48;44.31;99179.00;5065382;28;20369;-79
2022/08/24 10:51:42;;;;;;;3.55;2.58;;;;;;;26.40;44.23;99164.31;5071710;28;20027;-78
2022/08/24 10:54:11;;;;;;;4.40;1.98;;;;;;;27.04;43.58;99166.97;5022862;28;20131;-79
2022/08/24 10:56:52;;;;;;;4.07;2.47;;;;;;;26.65;43.92;99165.03;5058844;28;20032;-78
2022/08/24 10:59:56;;;;;;;3.75;2.60;;;;;;;26.80;44.13;99164.31;5060780;28;20021;-78
2022/08/24 11:02:34;;;;;;;8.15;2.42;;;;;;;27.45;43.53;99163.06;5061059;28;20020;-79
2022/08/24 11:05:07;;;;;;;8.48;2.90;;;;;;;27.50;42.99;99164.75;5076022;28;20514;-79
2022/08/24 11:07:34;;;;;;;7.43;2.97;;;;;;;27.42;43.35;99159.06;5063114;28;20476;-78
2022/08/24 11:10:05;;;;;;;4.43;2.88;;;;;;;28.17;42.32;99176.28;5058609;28;20111;-78
2022/08/24 11:12:39;;;;;;;3.15;2.78;;;;;;;28.24;41.75;99172.09;5063693;28;20020;-78
2022/08/24 11:15:26;;;;;;;4.93;2.40;;;;;;;28.38;41.70;99164.97;5058473;28;20135;-78
2022/08/24 11:18:01;;;;;;;6.75;3.10;;;;;;;27.97;41.71;99158.13;5061782;28;20496;-78
2022/08/24 11:20:35;;;;;;;4.00;2.72;;;;;;;28.58;41.59;99165.84;5059680;28;20032;-78
2022/08/24 11:23:08;;;;;;;6.57;2.83;;;;;;;28.54;41.48;99160.25;5060702;28;20028;-79
2022/08/24 11:25:39;;;;;;;4.35;2.35;;;;;;;28.68;41.88;99163.31;5058366;28;20029;-78
2022/08/24 11:28:26;;;;;;;4.25;2.40;;;;;;;28.80;41.62;99156.88;5059708;28;20036;-78
2022/08/24 11:30:52;;;;;;;5.72;3.30;;;;;;;28.69;41.49;99148.44;5048480;28;20123;-78
2022/08/24 11:33:29;;;;;;;4.53;2.50;;;;;;;28.58;41.69;99150.16;5039780;28;20040;-78
2022/08/24 11:35:55;;;;;;;3.40;2.90;;;;;;;28.16;42.19;99147.22;5055265;28;20044;-78
2022/08/24 11:38:29;;;;;;;8.88;3.60;;;;;;;28.08;42.11;99150.16;5059519;28;20032;-77
2022/08/24 11:41:00;;;;;;;4.70;2.90;;;;;;;28.11;42.23;99147.47;5055736;28;20058;-77
2022/08/24 11:43:50;;;;;;;6.72;3.20;;;;;;;29.16;41.45;99142.72;5060756;28;20388;-77
2022/08/24 11:46:33;;;;;;;4.45;2.40;;;;;;;29.60;41.10;99141.19;5075890;28;20388;-78
2022/08/24 11:49:01;;;;;;;6.15;2.67;;;;;;;29.88;40.77;99142.84;5055329;28;20457;-78
2022/08/24 11:51:52;;;;;;;5.88;2.83;;;;;;;29.28;40.01;99150.81;5058903;28;20725;-78
2022/08/24 11:54:53;;;;;;;6.30;2.70;;;;;;;29.56;39.83;99145.03;5061407;28;20027;-78
2022/08/24 11:57:24;;;;;;;4.05;2.85;;;;;;;29.39;41.12;99142.75;5006435;28;20045;-78
2022/08/24 12:00:15;;;;;;;4.47;3.15;;;;;;;29.60;39.55;99143.13;5044118;28;20459;-78
2022/08/24 12:02:59;;;;;;;7.30;3.00;;;;;;;29.83;40.15;99140.41;5055748;28;20040;-78